sensor_id;sensor_type;location;lat;lon;timestamp;P1;durP1;ratioP1;P2;durP2;ratioP2
76576;SDS011;65441;44.748;37.600;2023-04-07T00:00:46;4.18;;;1.27;;
76576;SDS011;65441;44.748;37.600;2023-04-07T00:03:15;4.43;;;1.50;;
76576;SDS011;65441;44.748;37.600;2023-04-07T00:05:44;4.22;;;1.27;;
76576;SDS011;65441;44.748;37.600;2023-04-07T00:08:13;5.07;;;1.23;;
76576;SDS011;65441;44.748;37.600;2023-04-07T00:10:41;3.78;;;1.20;;
76576;SDS011;65441;44.748;37.600;2023-04-07T00:13:12;5.03;;;1.48;;
76576;SDS011;65441;44.748;37.600;2023-04-07T00:15:40;4.80;;;1.17;;
76576;SDS011;65441;44.748;37.600;2023-04-07T00:18:09;4.32;;;1.23;;
76576;SDS011;65441;44.748;37.600;2023-04-07T00:20:38;3.17;;;1.30;;
76576;SDS011;65441;44.748;37.600;2023-04-07T00:23:07;4.50;;;1.52;;
76576;SDS011;65441;44.748;37.600;2023-04-07T00:25:36;3.67;;;1.15;;
76576;SDS011;65441;44.748;37.600;2023-04-07T00:28:05;4.55;;;1.60;;
76576;SDS011;65441;44.748;37.600;2023-04-07T00:30:35;4.97;;;1.50;;
76576;SDS011;65441;44.748;37.600;2023-04-07T00:33:04;4.93;;;1.42;;
76576;SDS011;65441;44.748;37.600;2023-04-07T00:35:33;4.10;;;1.20;;
76576;SDS011;65441;44.748;37.600;2023-04-07T00:38:02;4.45;;;1.17;;
76576;SDS011;65441;44.748;37.600;2023-04-07T00:40:31;5.05;;;1.40;;
76576;SDS011;65441;44.748;37.600;2023-04-07T00:43:00;4.68;;;1.50;;
76576;SDS011;65441;44.748;37.600;2023-04-07T00:45:28;4.15;;;1.50;;
76576;SDS011;65441;44.748;37.600;2023-04-07T00:47:59;7.18;;;1.10;;
76576;SDS011;65441;44.748;37.600;2023-04-07T00:50:28;5.13;;;1.67;;
76576;SDS011;65441;44.748;37.600;2023-04-07T00:52:57;3.83;;;1.30;;
76576;SDS011;65441;44.748;37.600;2023-04-07T00:55:28;4.20;;;1.30;;
76576;SDS011;65441;44.748;37.600;2023-04-07T00:57:56;5.45;;;1.33;;
76576;SDS011;65441;44.748;37.600;2023-04-07T01:00:25;3.97;;;1.52;;
76576;SDS011;65441;44.748;37.600;2023-04-07T01:02:56;4.68;;;1.45;;
76576;SDS011;65441;44.748;37.600;2023-04-07T01:05:33;3.72;;;1.25;;
76576;SDS011;65441;44.748;37.600;2023-04-07T01:08:12;3.65;;;1.17;;
76576;SDS011;65441;44.748;37.600;2023-04-07T01:10:46;3.80;;;1.10;;
76576;SDS011;65441;44.748;37.600;2023-04-07T01:13:22;6.38;;;1.30;;
76576;SDS011;65441;44.748;37.600;2023-04-07T01:16:03;4.10;;;1.20;;
76576;SDS011;65441;44.748;37.600;2023-04-07T01:18:45;4.30;;;1.05;;
76576;SDS011;65441;44.748;37.600;2023-04-07T01:21:18;4.97;;;1.15;;
76576;SDS011;65441;44.748;37.600;2023-04-07T01:23:51;3.45;;;0.90;;
76576;SDS011;65441;44.748;37.600;2023-04-07T01:26:32;3.70;;;1.13;;
76576;SDS011;65441;44.748;37.600;2023-04-07T01:32:01;4.68;;;1.23;;
76576;SDS011;65441;44.748;37.600;2023-04-07T01:34:33;4.55;;;1.25;;
76576;SDS011;65441;44.748;37.600;2023-04-07T01:37:04;4.50;;;1.13;;
76576;SDS011;65441;44.748;37.600;2023-04-07T01:39:35;3.67;;;1.10;;
76576;SDS011;65441;44.748;37.600;2023-04-07T01:42:06;5.05;;;1.40;;
76576;SDS011;65441;44.748;37.600;2023-04-07T01:44:37;4.50;;;1.10;;
76576;SDS011;65441;44.748;37.600;2023-04-07T01:47:07;3.83;;;1.00;;
76576;SDS011;65441;44.748;37.600;2023-04-07T01:49:37;3.20;;;0.90;;
76576;SDS011;65441;44.748;37.600;2023-04-07T01:52:08;3.25;;;1.00;;
76576;SDS011;65441;44.748;37.600;2023-04-07T01:54:37;2.60;;;1.10;;
76576;SDS011;65441;44.748;37.600;2023-04-07T01:57:07;2.53;;;0.90;;
76576;SDS011;65441;44.748;37.600;2023-04-07T01:59:37;3.10;;;0.90;;
76576;SDS011;65441;44.748;37.600;2023-04-07T02:02:06;2.53;;;0.80;;
76576;SDS011;65441;44.748;37.600;2023-04-07T02:04:36;3.45;;;0.80;;
76576;SDS011;65441;44.748;37.600;2023-04-07T02:07:08;2.00;;;0.70;;
76576;SDS011;65441;44.748;37.600;2023-04-07T02:09:47;1.90;;;0.60;;
76576;SDS011;65441;44.748;37.600;2023-04-07T02:12:18;3.17;;;1.00;;
76576;SDS011;65441;44.748;37.600;2023-04-07T02:15:01;2.25;;;0.77;;
76576;SDS011;65441;44.748;37.600;2023-04-07T02:17:32;1.95;;;0.70;;
76576;SDS011;65441;44.748;37.600;2023-04-07T02:20:04;6.38;;;1.00;;
76576;SDS011;65441;44.748;37.600;2023-04-07T02:22:37;4.30;;;1.05;;
76576;SDS011;65441;44.748;37.600;2023-04-07T02:25:19;3.25;;;0.80;;
76576;SDS011;65441;44.748;37.600;2023-04-07T02:27:49;2.17;;;0.90;;
76576;SDS011;65441;44.748;37.600;2023-04-07T02:30:20;3.97;;;0.85;;
76576;SDS011;65441;44.748;37.600;2023-04-07T02:32:51;2.70;;;0.82;;
76576;SDS011;65441;44.748;37.600;2023-04-07T02:35:20;3.55;;;0.90;;
76576;SDS011;65441;44.748;37.600;2023-04-07T02:37:49;3.30;;;0.93;;
76576;SDS011;65441;44.748;37.600;2023-04-07T02:40:18;2.20;;;0.80;;
76576;SDS011;65441;44.748;37.600;2023-04-07T02:42:46;2.95;;;0.75;;
76576;SDS011;65441;44.748;37.600;2023-04-07T02:45:15;2.75;;;0.90;;
76576;SDS011;65441;44.748;37.600;2023-04-07T02:47:45;2.80;;;0.70;;
76576;SDS011;65441;44.748;37.600;2023-04-07T02:50:17;3.13;;;0.82;;
76576;SDS011;65441;44.748;37.600;2023-04-07T02:52:46;2.75;;;0.90;;
76576;SDS011;65441;44.748;37.600;2023-04-07T02:55:16;2.22;;;0.80;;
76576;SDS011;65441;44.748;37.600;2023-04-07T02:57:48;4.20;;;0.75;;
76576;SDS011;65441;44.748;37.600;2023-04-07T03:00:52;3.10;;;0.88;;
76576;SDS011;65441;44.748;37.600;2023-04-07T03:03:25;4.18;;;0.73;;
76576;SDS011;65441;44.748;37.600;2023-04-07T03:06:23;3.03;;;0.77;;
76576;SDS011;65441;44.748;37.600;2023-04-07T03:09:23;4.15;;;0.90;;
76576;SDS011;65441;44.748;37.600;2023-04-07T03:11:52;2.85;;;0.65;;
76576;SDS011;65441;44.748;37.600;2023-04-07T03:14:21;2.08;;;0.70;;
76576;SDS011;65441;44.748;37.600;2023-04-07T03:16:50;2.50;;;0.63;;
76576;SDS011;65441;44.748;37.600;2023-04-07T03:19:22;2.40;;;0.70;;
76576;SDS011;65441;44.748;37.600;2023-04-07T03:21:52;3.05;;;0.60;;
76576;SDS011;65441;44.748;37.600;2023-04-07T03:24:21;2.83;;;0.65;;
76576;SDS011;65441;44.748;37.600;2023-04-07T03:26:50;2.50;;;0.75;;
76576;SDS011;65441;44.748;37.600;2023-04-07T03:29:25;2.53;;;0.90;;
76576;SDS011;65441;44.748;37.600;2023-04-07T03:31:54;4.38;;;0.77;;
76576;SDS011;65441;44.748;37.600;2023-04-07T03:34:26;3.38;;;0.93;;
76576;SDS011;65441;44.748;37.600;2023-04-07T03:36:57;2.45;;;0.93;;
76576;SDS011;65441;44.748;37.600;2023-04-07T03:39:28;2.65;;;0.82;;
76576;SDS011;65441;44.748;37.600;2023-04-07T03:42:00;3.72;;;1.20;;
76576;SDS011;65441;44.748;37.600;2023-04-07T03:44:31;4.97;;;1.60;;
76576;SDS011;65441;44.748;37.600;2023-04-07T03:47:00;4.32;;;1.50;;
76576;SDS011;65441;44.748;37.600;2023-04-07T03:49:31;4.78;;;1.52;;
76576;SDS011;65441;44.748;37.600;2023-04-07T03:52:02;4.10;;;1.30;;
76576;SDS011;65441;44.748;37.600;2023-04-07T03:54:33;4.75;;;1.50;;
76576;SDS011;65441;44.748;37.600;2023-04-07T03:57:08;6.72;;;1.65;;
76576;SDS011;65441;44.748;37.600;2023-04-07T03:59:42;5.72;;;1.52;;
76576;SDS011;65441;44.748;37.600;2023-04-07T04:02:12;5.63;;;1.80;;
76576;SDS011;65441;44.748;37.600;2023-04-07T04:04:43;5.05;;;1.70;;
76576;SDS011;65441;44.748;37.600;2023-04-07T04:07:13;5.03;;;1.98;;
76576;SDS011;65441;44.748;37.600;2023-04-07T04:09:45;5.43;;;1.63;;
76576;SDS011;65441;44.748;37.600;2023-04-07T04:12:15;4.70;;;1.65;;
76576;SDS011;65441;44.748;37.600;2023-04-07T04:14:58;4.85;;;1.60;;
76576;SDS011;65441;44.748;37.600;2023-04-07T04:17:27;5.72;;;1.90;;
76576;SDS011;65441;44.748;37.600;2023-04-07T04:19:57;5.55;;;1.63;;
76576;SDS011;65441;44.748;37.600;2023-04-07T04:22:37;7.30;;;1.88;;
76576;SDS011;65441;44.748;37.600;2023-04-07T04:25:07;4.93;;;1.80;;
76576;SDS011;65441;44.748;37.600;2023-04-07T04:27:36;5.68;;;1.77;;
76576;SDS011;65441;44.748;37.600;2023-04-07T04:30:13;4.88;;;1.65;;
76576;SDS011;65441;44.748;37.600;2023-04-07T04:32:50;5.38;;;1.83;;
76576;SDS011;65441;44.748;37.600;2023-04-07T04:35:28;7.60;;;2.40;;
76576;SDS011;65441;44.748;37.600;2023-04-07T04:38:17;6.00;;;2.35;;
76576;SDS011;65441;44.748;37.600;2023-04-07T04:40:54;5.47;;;2.10;;
76576;SDS011;65441;44.748;37.600;2023-04-07T04:43:32;6.95;;;2.28;;
76576;SDS011;65441;44.748;37.600;2023-04-07T04:46:03;8.18;;;1.90;;
76576;SDS011;65441;44.748;37.600;2023-04-07T04:48:37;6.28;;;2.50;;
76576;SDS011;65441;44.748;37.600;2023-04-07T04:51:08;7.88;;;2.60;;
76576;SDS011;65441;44.748;37.600;2023-04-07T04:53:40;6.70;;;2.33;;
76576;SDS011;65441;44.748;37.600;2023-04-07T04:56:10;6.13;;;1.73;;
76576;SDS011;65441;44.748;37.600;2023-04-07T04:58:41;7.20;;;1.80;;
76576;SDS011;65441;44.748;37.600;2023-04-07T05:01:16;8.00;;;1.75;;
76576;SDS011;65441;44.748;37.600;2023-04-07T05:03:54;5.70;;;1.85;;
76576;SDS011;65441;44.748;37.600;2023-04-07T05:06:29;5.93;;;2.10;;
76576;SDS011;65441;44.748;37.600;2023-04-07T05:09:03;5.68;;;1.95;;
76576;SDS011;65441;44.748;37.600;2023-04-07T05:11:40;8.85;;;2.35;;
76576;SDS011;65441;44.748;37.600;2023-04-07T05:14:09;9.48;;;2.40;;
76576;SDS011;65441;44.748;37.600;2023-04-07T05:16:43;9.00;;;1.80;;
76576;SDS011;65441;44.748;37.600;2023-04-07T05:19:18;5.95;;;1.92;;
76576;SDS011;65441;44.748;37.600;2023-04-07T05:21:49;5.60;;;2.03;;
76576;SDS011;65441;44.748;37.600;2023-04-07T05:24:21;7.63;;;2.17;;
76576;SDS011;65441;44.748;37.600;2023-04-07T05:26:55;5.68;;;1.80;;
76576;SDS011;65441;44.748;37.600;2023-04-07T05:29:24;6.10;;;2.20;;
76576;SDS011;65441;44.748;37.600;2023-04-07T05:31:54;5.10;;;1.85;;
76576;SDS011;65441;44.748;37.600;2023-04-07T05:34:24;6.50;;;1.85;;
76576;SDS011;65441;44.748;37.600;2023-04-07T05:36:56;5.55;;;1.80;;
76576;SDS011;65441;44.748;37.600;2023-04-07T05:39:26;5.07;;;1.98;;
76576;SDS011;65441;44.748;37.600;2023-04-07T05:41:56;5.45;;;1.92;;
76576;SDS011;65441;44.748;37.600;2023-04-07T05:44:27;4.70;;;1.40;;
76576;SDS011;65441;44.748;37.600;2023-04-07T05:46:56;5.25;;;1.65;;
76576;SDS011;65441;44.748;37.600;2023-04-07T05:49:27;4.82;;;1.52;;
76576;SDS011;65441;44.748;37.600;2023-04-07T05:52:04;4.40;;;1.70;;
76576;SDS011;65441;44.748;37.600;2023-04-07T05:54:37;5.18;;;1.83;;
76576;SDS011;65441;44.748;37.600;2023-04-07T05:57:07;5.28;;;2.00;;
76576;SDS011;65441;44.748;37.600;2023-04-07T05:59:40;6.53;;;2.00;;
76576;SDS011;65441;44.748;37.600;2023-04-07T06:02:09;6.90;;;1.98;;
76576;SDS011;65441;44.748;37.600;2023-04-07T06:04:39;7.15;;;2.17;;
76576;SDS011;65441;44.748;37.600;2023-04-07T06:07:12;5.55;;;1.88;;
76576;SDS011;65441;44.748;37.600;2023-04-07T06:09:42;5.10;;;1.70;;
76576;SDS011;65441;44.748;37.600;2023-04-07T06:12:12;5.68;;;1.75;;
76576;SDS011;65441;44.748;37.600;2023-04-07T06:14:42;5.85;;;2.10;;
76576;SDS011;65441;44.748;37.600;2023-04-07T06:17:14;4.88;;;2.08;;
76576;SDS011;65441;44.748;37.600;2023-04-07T06:19:42;7.85;;;2.38;;
76576;SDS011;65441;44.748;37.600;2023-04-07T06:22:12;5.43;;;2.00;;
76576;SDS011;65441;44.748;37.600;2023-04-07T06:24:42;4.93;;;2.20;;
76576;SDS011;65441;44.748;37.600;2023-04-07T06:27:10;5.15;;;1.83;;
76576;SDS011;65441;44.748;37.600;2023-04-07T06:29:39;4.90;;;2.00;;
76576;SDS011;65441;44.748;37.600;2023-04-07T06:32:09;5.57;;;1.85;;
76576;SDS011;65441;44.748;37.600;2023-04-07T06:34:38;6.40;;;2.17;;
76576;SDS011;65441;44.748;37.600;2023-04-07T06:37:07;6.38;;;2.15;;
76576;SDS011;65441;44.748;37.600;2023-04-07T06:39:37;5.00;;;2.10;;
76576;SDS011;65441;44.748;37.600;2023-04-07T06:42:06;5.95;;;2.25;;
76576;SDS011;65441;44.748;37.600;2023-04-07T06:44:39;5.88;;;2.00;;
76576;SDS011;65441;44.748;37.600;2023-04-07T06:47:08;6.40;;;2.50;;
76576;SDS011;65441;44.748;37.600;2023-04-07T06:49:37;6.65;;;2.35;;
76576;SDS011;65441;44.748;37.600;2023-04-07T06:52:06;6.18;;;2.22;;
76576;SDS011;65441;44.748;37.600;2023-04-07T06:54:34;5.32;;;1.90;;
76576;SDS011;65441;44.748;37.600;2023-04-07T06:57:05;6.15;;;2.15;;
76576;SDS011;65441;44.748;37.600;2023-04-07T06:59:37;5.30;;;1.88;;
76576;SDS011;65441;44.748;37.600;2023-04-07T07:02:06;5.70;;;1.90;;
76576;SDS011;65441;44.748;37.600;2023-04-07T07:04:35;4.78;;;1.60;;
76576;SDS011;65441;44.748;37.600;2023-04-07T07:07:04;4.72;;;1.55;;
76576;SDS011;65441;44.748;37.600;2023-04-07T07:09:33;4.32;;;1.70;;
76576;SDS011;65441;44.748;37.600;2023-04-07T07:12:03;4.85;;;1.58;;
76576;SDS011;65441;44.748;37.600;2023-04-07T07:14:33;5.40;;;1.80;;
76576;SDS011;65441;44.748;37.600;2023-04-07T07:17:02;5.32;;;2.20;;
76576;SDS011;65441;44.748;37.600;2023-04-07T07:19:31;5.80;;;2.03;;
76576;SDS011;65441;44.748;37.600;2023-04-07T07:21:59;5.07;;;1.80;;
76576;SDS011;65441;44.748;37.600;2023-04-07T07:24:29;5.97;;;2.45;;
76576;SDS011;65441;44.748;37.600;2023-04-07T07:26:59;5.47;;;2.00;;
76576;SDS011;65441;44.748;37.600;2023-04-07T07:32:00;4.72;;;1.70;;
76576;SDS011;65441;44.748;37.600;2023-04-07T07:34:29;4.13;;;1.30;;
76576;SDS011;65441;44.748;37.600;2023-04-07T07:36:58;3.75;;;1.33;;
76576;SDS011;65441;44.748;37.600;2023-04-07T07:39:29;3.75;;;1.40;;
76576;SDS011;65441;44.748;37.600;2023-04-07T07:41:57;3.42;;;1.30;;
76576;SDS011;65441;44.748;37.600;2023-04-07T07:44:27;4.22;;;1.20;;
76576;SDS011;65441;44.748;37.600;2023-04-07T07:46:57;3.03;;;1.00;;
76576;SDS011;65441;44.748;37.600;2023-04-07T07:49:25;3.50;;;1.05;;
76576;SDS011;65441;44.748;37.600;2023-04-07T07:51:54;4.65;;;1.30;;
76576;SDS011;65441;44.748;37.600;2023-04-07T07:54:25;4.97;;;1.50;;
76576;SDS011;65441;44.748;37.600;2023-04-07T07:56:54;4.50;;;1.65;;
76576;SDS011;65441;44.748;37.600;2023-04-07T07:59:23;3.45;;;1.20;;
76576;SDS011;65441;44.748;37.600;2023-04-07T08:01:52;4.50;;;1.42;;
76576;SDS011;65441;44.748;37.600;2023-04-07T08:04:22;2.40;;;0.90;;
76576;SDS011;65441;44.748;37.600;2023-04-07T08:06:52;4.85;;;1.42;;
76576;SDS011;65441;44.748;37.600;2023-04-07T08:09:20;5.70;;;1.88;;
76576;SDS011;65441;44.748;37.600;2023-04-07T08:11:49;3.95;;;1.35;;
76576;SDS011;65441;44.748;37.600;2023-04-07T08:14:18;3.35;;;1.13;;
76576;SDS011;65441;44.748;37.600;2023-04-07T08:16:47;4.40;;;1.27;;
76576;SDS011;65441;44.748;37.600;2023-04-07T08:19:16;5.97;;;1.60;;
76576;SDS011;65441;44.748;37.600;2023-04-07T08:21:46;4.30;;;1.30;;
76576;SDS011;65441;44.748;37.600;2023-04-07T08:24:15;4.90;;;1.48;;
76576;SDS011;65441;44.748;37.600;2023-04-07T08:26:44;6.20;;;1.65;;
76576;SDS011;65441;44.748;37.600;2023-04-07T08:29:13;4.70;;;1.33;;
76576;SDS011;65441;44.748;37.600;2023-04-07T08:31:42;3.38;;;1.20;;
76576;SDS011;65441;44.748;37.600;2023-04-07T08:34:11;4.22;;;1.67;;
76576;SDS011;65441;44.748;37.600;2023-04-07T08:36:41;3.80;;;1.48;;
76576;SDS011;65441;44.748;37.600;2023-04-07T08:39:11;5.30;;;1.60;;
76576;SDS011;65441;44.748;37.600;2023-04-07T08:41:40;5.05;;;1.50;;
76576;SDS011;65441;44.748;37.600;2023-04-07T08:44:10;5.13;;;1.40;;
76576;SDS011;65441;44.748;37.600;2023-04-07T08:46:40;5.38;;;2.00;;
76576;SDS011;65441;44.748;37.600;2023-04-07T08:49:10;6.75;;;1.60;;
76576;SDS011;65441;44.748;37.600;2023-04-07T08:51:42;4.80;;;1.45;;
76576;SDS011;65441;44.748;37.600;2023-04-07T08:54:15;4.97;;;1.80;;
76576;SDS011;65441;44.748;37.600;2023-04-07T08:56:47;6.68;;;1.45;;
76576;SDS011;65441;44.748;37.600;2023-04-07T08:59:16;6.88;;;1.35;;
76576;SDS011;65441;44.748;37.600;2023-04-07T09:01:51;7.00;;;1.65;;
76576;SDS011;65441;44.748;37.600;2023-04-07T09:04:21;4.68;;;1.50;;
76576;SDS011;65441;44.748;37.600;2023-04-07T09:06:50;6.70;;;2.13;;
76576;SDS011;65441;44.748;37.600;2023-04-07T09:09:20;5.25;;;1.83;;
76576;SDS011;65441;44.748;37.600;2023-04-07T09:11:50;7.28;;;1.90;;
76576;SDS011;65441;44.748;37.600;2023-04-07T09:14:19;8.75;;;3.08;;
76576;SDS011;65441;44.748;37.600;2023-04-07T09:16:48;7.10;;;2.20;;
76576;SDS011;65441;44.748;37.600;2023-04-07T09:19:17;8.18;;;1.90;;
76576;SDS011;65441;44.748;37.600;2023-04-07T09:21:46;7.00;;;2.95;;
76576;SDS011;65441;44.748;37.600;2023-04-07T09:24:21;4.30;;;1.60;;
76576;SDS011;65441;44.748;37.600;2023-04-07T09:29:37;5.45;;;1.50;;
76576;SDS011;65441;44.748;37.600;2023-04-07T09:32:06;4.13;;;1.50;;
76576;SDS011;65441;44.748;37.600;2023-04-07T09:34:36;4.40;;;1.50;;
76576;SDS011;65441;44.748;37.600;2023-04-07T09:37:06;3.58;;;1.30;;
76576;SDS011;65441;44.748;37.600;2023-04-07T09:39:49;5.22;;;1.70;;
76576;SDS011;65441;44.748;37.600;2023-04-07T09:42:18;3.72;;;1.02;;
76576;SDS011;65441;44.748;37.600;2023-04-07T09:44:48;5.55;;;1.80;;
76576;SDS011;65441;44.748;37.600;2023-04-07T09:47:18;6.25;;;2.17;;
76576;SDS011;65441;44.748;37.600;2023-04-07T09:49:54;6.22;;;1.80;;
76576;SDS011;65441;44.748;37.600;2023-04-07T09:52:25;6.80;;;3.10;;
76576;SDS011;65441;44.748;37.600;2023-04-07T09:55:21;5.80;;;1.88;;
76576;SDS011;65441;44.748;37.600;2023-04-07T09:57:51;6.28;;;2.50;;
76576;SDS011;65441;44.748;37.600;2023-04-07T10:00:21;8.55;;;2.60;;
76576;SDS011;65441;44.748;37.600;2023-04-07T10:02:50;7.03;;;2.70;;
76576;SDS011;65441;44.748;37.600;2023-04-07T10:05:20;6.45;;;2.80;;
76576;SDS011;65441;44.748;37.600;2023-04-07T10:07:49;6.78;;;2.17;;
76576;SDS011;65441;44.748;37.600;2023-04-07T10:10:18;7.63;;;2.28;;
76576;SDS011;65441;44.748;37.600;2023-04-07T10:12:48;7.13;;;2.20;;
76576;SDS011;65441;44.748;37.600;2023-04-07T10:15:20;6.78;;;2.25;;
76576;SDS011;65441;44.748;37.600;2023-04-07T10:17:50;7.53;;;1.95;;
76576;SDS011;65441;44.748;37.600;2023-04-07T10:20:22;7.35;;;1.73;;
76576;SDS011;65441;44.748;37.600;2023-04-07T10:22:52;7.43;;;2.30;;
76576;SDS011;65441;44.748;37.600;2023-04-07T10:25:29;4.32;;;1.63;;
76576;SDS011;65441;44.748;37.600;2023-04-07T10:28:03;6.80;;;1.80;;
76576;SDS011;65441;44.748;37.600;2023-04-07T10:30:34;7.10;;;2.10;;
76576;SDS011;65441;44.748;37.600;2023-04-07T10:33:04;5.28;;;1.60;;
76576;SDS011;65441;44.748;37.600;2023-04-07T10:38:32;5.40;;;1.65;;
76576;SDS011;65441;44.748;37.600;2023-04-07T10:44:03;6.40;;;1.55;;
76576;SDS011;65441;44.748;37.600;2023-04-07T10:49:31;4.82;;;1.50;;
76576;SDS011;65441;44.748;37.600;2023-04-07T11:03:52;6.22;;;1.45;;
76576;SDS011;65441;44.748;37.600;2023-04-07T11:06:26;4.97;;;1.10;;
76576;SDS011;65441;44.748;37.600;2023-04-07T11:08:55;3.13;;;1.00;;
76576;SDS011;65441;44.748;37.600;2023-04-07T11:11:37;5.10;;;0.90;;
76576;SDS011;65441;44.748;37.600;2023-04-07T11:14:08;3.75;;;0.80;;
76576;SDS011;65441;44.748;37.600;2023-04-07T11:16:41;2.38;;;0.75;;
76576;SDS011;65441;44.748;37.600;2023-04-07T11:19:11;3.80;;;0.95;;
76576;SDS011;65441;44.748;37.600;2023-04-07T11:21:40;2.13;;;0.73;;
76576;SDS011;65441;44.748;37.600;2023-04-07T11:24:09;4.65;;;1.70;;
76576;SDS011;65441;44.748;37.600;2023-04-07T11:26:38;4.65;;;1.52;;
76576;SDS011;65441;44.748;37.600;2023-04-07T11:29:07;4.28;;;1.20;;
76576;SDS011;65441;44.748;37.600;2023-04-07T11:31:38;4.78;;;1.20;;
76576;SDS011;65441;44.748;37.600;2023-04-07T11:34:08;4.50;;;1.17;;
76576;SDS011;65441;44.748;37.600;2023-04-07T11:36:39;3.67;;;1.08;;
76576;SDS011;65441;44.748;37.600;2023-04-07T11:39:18;4.53;;;1.20;;
76576;SDS011;65441;44.748;37.600;2023-04-07T11:41:48;2.92;;;0.95;;
76576;SDS011;65441;44.748;37.600;2023-04-07T11:44:17;6.18;;;1.67;;
76576;SDS011;65441;44.748;37.600;2023-04-07T11:46:52;5.43;;;1.30;;
76576;SDS011;65441;44.748;37.600;2023-04-07T11:49:24;4.60;;;1.35;;
76576;SDS011;65441;44.748;37.600;2023-04-07T11:51:57;5.30;;;1.20;;
76576;SDS011;65441;44.748;37.600;2023-04-07T11:54:37;7.20;;;1.20;;
76576;SDS011;65441;44.748;37.600;2023-04-07T11:57:08;4.55;;;1.10;;
76576;SDS011;65441;44.748;37.600;2023-04-07T11:59:38;5.35;;;1.70;;
76576;SDS011;65441;44.748;37.600;2023-04-07T12:02:07;7.28;;;1.67;;
76576;SDS011;65441;44.748;37.600;2023-04-07T12:04:38;5.60;;;1.63;;
76576;SDS011;65441;44.748;37.600;2023-04-07T12:09:52;3.38;;;1.08;;
76576;SDS011;65441;44.748;37.600;2023-04-07T12:12:24;3.60;;;1.20;;
76576;SDS011;65441;44.748;37.600;2023-04-07T12:14:54;3.63;;;1.10;;
76576;SDS011;65441;44.748;37.600;2023-04-07T12:17:23;3.67;;;1.17;;
76576;SDS011;65441;44.748;37.600;2023-04-07T12:19:55;5.88;;;1.40;;
76576;SDS011;65441;44.748;37.600;2023-04-07T12:22:24;3.83;;;1.30;;
76576;SDS011;65441;44.748;37.600;2023-04-07T12:24:53;7.53;;;1.40;;
76576;SDS011;65441;44.748;37.600;2023-04-07T12:27:21;4.25;;;1.25;;
76576;SDS011;65441;44.748;37.600;2023-04-07T12:29:50;11.05;;;2.85;;
76576;SDS011;65441;44.748;37.600;2023-04-07T12:32:19;15.77;;;6.75;;
76576;SDS011;65441;44.748;37.600;2023-04-07T12:34:47;11.90;;;4.47;;
76576;SDS011;65441;44.748;37.600;2023-04-07T12:37:18;12.05;;;5.13;;
76576;SDS011;65441;44.748;37.600;2023-04-07T12:39:47;4.78;;;1.60;;
76576;SDS011;65441;44.748;37.600;2023-04-07T12:42:16;6.28;;;2.58;;
76576;SDS011;65441;44.748;37.600;2023-04-07T12:44:45;4.25;;;1.23;;
76576;SDS011;65441;44.748;37.600;2023-04-07T12:47:13;5.47;;;2.10;;
76576;SDS011;65441;44.748;37.600;2023-04-07T12:49:43;8.80;;;2.10;;
76576;SDS011;65441;44.748;37.600;2023-04-07T12:52:11;5.70;;;1.90;;
76576;SDS011;65441;44.748;37.600;2023-04-07T12:54:41;7.22;;;2.40;;
76576;SDS011;65441;44.748;37.600;2023-04-07T12:57:11;4.93;;;2.10;;
76576;SDS011;65441;44.748;37.600;2023-04-07T12:59:40;5.00;;;1.70;;
76576;SDS011;65441;44.748;37.600;2023-04-07T13:02:09;6.70;;;2.28;;
76576;SDS011;65441;44.748;37.600;2023-04-07T13:04:39;6.75;;;2.75;;
76576;SDS011;65441;44.748;37.600;2023-04-07T13:07:12;6.13;;;2.38;;
76576;SDS011;65441;44.748;37.600;2023-04-07T13:09:42;7.45;;;2.72;;
76576;SDS011;65441;44.748;37.600;2023-04-07T13:12:11;6.93;;;2.17;;
76576;SDS011;65441;44.748;37.600;2023-04-07T13:14:41;6.40;;;2.55;;
76576;SDS011;65441;44.748;37.600;2023-04-07T13:17:10;5.53;;;1.85;;
76576;SDS011;65441;44.748;37.600;2023-04-07T13:19:38;8.40;;;2.50;;
76576;SDS011;65441;44.748;37.600;2023-04-07T13:22:07;7.60;;;2.30;;
76576;SDS011;65441;44.748;37.600;2023-04-07T13:24:36;8.27;;;2.58;;
76576;SDS011;65441;44.748;37.600;2023-04-07T13:27:06;6.15;;;2.17;;
76576;SDS011;65441;44.748;37.600;2023-04-07T13:29:36;5.47;;;2.22;;
76576;SDS011;65441;44.748;37.600;2023-04-07T13:32:05;5.22;;;2.10;;
76576;SDS011;65441;44.748;37.600;2023-04-07T13:34:34;5.53;;;2.33;;
76576;SDS011;65441;44.748;37.600;2023-04-07T13:37:03;5.97;;;2.10;;
76576;SDS011;65441;44.748;37.600;2023-04-07T13:39:32;6.70;;;2.05;;
76576;SDS011;65441;44.748;37.600;2023-04-07T13:42:01;9.43;;;2.22;;
76576;SDS011;65441;44.748;37.600;2023-04-07T13:44:32;6.15;;;1.90;;
76576;SDS011;65441;44.748;37.600;2023-04-07T13:47:02;7.82;;;2.30;;
76576;SDS011;65441;44.748;37.600;2023-04-07T13:49:32;4.25;;;1.67;;
76576;SDS011;65441;44.748;37.600;2023-04-07T13:52:01;4.68;;;1.80;;
76576;SDS011;65441;44.748;37.600;2023-04-07T13:54:30;7.45;;;1.80;;
76576;SDS011;65441;44.748;37.600;2023-04-07T13:56:59;4.97;;;1.73;;
76576;SDS011;65441;44.748;37.600;2023-04-07T13:59:28;4.13;;;1.33;;
76576;SDS011;65441;44.748;37.600;2023-04-07T14:01:58;5.07;;;2.13;;
76576;SDS011;65441;44.748;37.600;2023-04-07T14:04:27;3.70;;;1.50;;
76576;SDS011;65441;44.748;37.600;2023-04-07T14:06:56;3.58;;;1.42;;
76576;SDS011;65441;44.748;37.600;2023-04-07T14:09:24;9.48;;;2.00;;
76576;SDS011;65441;44.748;37.600;2023-04-07T14:11:53;3.50;;;1.50;;
76576;SDS011;65441;44.748;37.600;2023-04-07T14:14:22;4.97;;;2.03;;
76576;SDS011;65441;44.748;37.600;2023-04-07T14:16:51;5.88;;;1.98;;
76576;SDS011;65441;44.748;37.600;2023-04-07T14:19:22;6.05;;;1.90;;
76576;SDS011;65441;44.748;37.600;2023-04-07T14:21:50;6.80;;;2.28;;
76576;SDS011;65441;44.748;37.600;2023-04-07T14:24:19;6.78;;;2.30;;
76576;SDS011;65441;44.748;37.600;2023-04-07T14:26:48;6.03;;;2.17;;
76576;SDS011;65441;44.748;37.600;2023-04-07T14:29:20;9.32;;;2.55;;
76576;SDS011;65441;44.748;37.600;2023-04-07T14:31:49;6.20;;;2.50;;
76576;SDS011;65441;44.748;37.600;2023-04-07T14:34:17;7.35;;;2.72;;
76576;SDS011;65441;44.748;37.600;2023-04-07T14:36:53;6.97;;;2.75;;
76576;SDS011;65441;44.748;37.600;2023-04-07T14:39:22;6.30;;;2.45;;
76576;SDS011;65441;44.748;37.600;2023-04-07T14:41:52;5.40;;;2.00;;
76576;SDS011;65441;44.748;37.600;2023-04-07T14:44:20;5.65;;;2.08;;
76576;SDS011;65441;44.748;37.600;2023-04-07T14:46:49;5.80;;;2.40;;
76576;SDS011;65441;44.748;37.600;2023-04-07T14:49:17;5.57;;;2.47;;
76576;SDS011;65441;44.748;37.600;2023-04-07T14:51:46;7.35;;;2.20;;
76576;SDS011;65441;44.748;37.600;2023-04-07T14:54:16;7.97;;;2.20;;
76576;SDS011;65441;44.748;37.600;2023-04-07T14:56:45;5.45;;;1.90;;
76576;SDS011;65441;44.748;37.600;2023-04-07T14:59:14;7.80;;;2.10;;
76576;SDS011;65441;44.748;37.600;2023-04-07T15:01:43;5.50;;;2.00;;
76576;SDS011;65441;44.748;37.600;2023-04-07T15:04:11;8.98;;;2.60;;
76576;SDS011;65441;44.748;37.600;2023-04-07T15:06:40;5.32;;;2.30;;
76576;SDS011;65441;44.748;37.600;2023-04-07T15:09:09;5.55;;;2.38;;
76576;SDS011;65441;44.748;37.600;2023-04-07T15:11:39;4.60;;;2.10;;
76576;SDS011;65441;44.748;37.600;2023-04-07T15:14:08;8.60;;;2.28;;
76576;SDS011;65441;44.748;37.600;2023-04-07T15:16:37;6.28;;;1.83;;
76576;SDS011;65441;44.748;37.600;2023-04-07T15:19:06;7.03;;;2.35;;
76576;SDS011;65441;44.748;37.600;2023-04-07T15:21:34;5.50;;;1.98;;
76576;SDS011;65441;44.748;37.600;2023-04-07T15:24:03;4.75;;;2.00;;
76576;SDS011;65441;44.748;37.600;2023-04-07T15:26:32;5.97;;;2.35;;